sensor_id;sensor_type;location;lat;lon;timestamp;P1;durP1;ratioP1;P2;durP2;ratioP2
7817;SDS011;3954;52.624;9.212;2023-06-01T00:00:40;10.50;;;4.80;;
7817;SDS011;3954;52.624;9.212;2023-06-01T00:03:06;9.60;;;5.03;;
7817;SDS011;3954;52.624;9.212;2023-06-01T00:05:32;10.37;;;5.30;;
7817;SDS011;3954;52.624;9.212;2023-06-01T00:07:58;6.23;;;4.53;;
7817;SDS011;3954;52.624;9.212;2023-06-01T00:10:24;10.20;;;5.67;;
7817;SDS011;3954;52.624;9.212;2023-06-01T00:12:50;10.97;;;5.47;;
7817;SDS011;3954;52.624;9.212;2023-06-01T00:15:16;7.13;;;5.20;;
7817;SDS011;3954;52.624;9.212;2023-06-01T00:17:44;6.33;;;5.40;;
7817;SDS011;3954;52.624;9.212;2023-06-01T00:20:11;11.00;;;5.90;;
7817;SDS011;3954;52.624;9.212;2023-06-01T00:22:37;9.20;;;5.57;;
7817;SDS011;3954;52.624;9.212;2023-06-01T00:25:04;9.43;;;6.37;;
7817;SDS011;3954;52.624;9.212;2023-06-01T00:27:31;10.93;;;6.23;;
7817;SDS011;3954;52.624;9.212;2023-06-01T00:29:57;10.70;;;6.63;;
7817;SDS011;3954;52.624;9.212;2023-06-01T00:32:23;8.97;;;5.60;;
7817;SDS011;3954;52.624;9.212;2023-06-01T00:34:50;10.63;;;5.70;;
7817;SDS011;3954;52.624;9.212;2023-06-01T00:37:16;9.57;;;5.80;;
7817;SDS011;3954;52.624;9.212;2023-06-01T00:39:42;11.60;;;5.83;;
7817;SDS011;3954;52.624;9.212;2023-06-01T00:42:08;9.80;;;5.63;;
7817;SDS011;3954;52.624;9.212;2023-06-01T00:44:34;10.73;;;6.00;;
7817;SDS011;3954;52.624;9.212;2023-06-01T00:47:00;7.53;;;5.53;;
7817;SDS011;3954;52.624;9.212;2023-06-01T00:49:26;9.37;;;5.97;;
7817;SDS011;3954;52.624;9.212;2023-06-01T00:51:53;8.47;;;5.70;;
7817;SDS011;3954;52.624;9.212;2023-06-01T00:54:20;9.90;;;5.13;;
7817;SDS011;3954;52.624;9.212;2023-06-01T00:56:46;10.87;;;5.90;;
7817;SDS011;3954;52.624;9.212;2023-06-01T00:59:12;11.47;;;5.67;;
7817;SDS011;3954;52.624;9.212;2023-06-01T01:01:38;8.40;;;5.77;;
7817;SDS011;3954;52.624;9.212;2023-06-01T01:04:07;7.67;;;5.87;;
7817;SDS011;3954;52.624;9.212;2023-06-01T01:06:37;10.03;;;5.50;;
7817;SDS011;3954;52.624;9.212;2023-06-01T01:09:10;9.70;;;5.97;;
7817;SDS011;3954;52.624;9.212;2023-06-01T01:11:40;9.50;;;5.53;;
7817;SDS011;3954;52.624;9.212;2023-06-01T01:14:08;9.93;;;5.57;;
7817;SDS011;3954;52.624;9.212;2023-06-01T01:16:39;12.63;;;6.40;;
7817;SDS011;3954;52.624;9.212;2023-06-01T01:19:11;8.43;;;5.47;;
7817;SDS011;3954;52.624;9.212;2023-06-01T01:21:42;6.90;;;5.37;;
7817;SDS011;3954;52.624;9.212;2023-06-01T01:24:26;9.10;;;5.50;;
7817;SDS011;3954;52.624;9.212;2023-06-01T01:26:59;12.23;;;6.13;;
7817;SDS011;3954;52.624;9.212;2023-06-01T01:29:32;11.90;;;5.90;;
7817;SDS011;3954;52.624;9.212;2023-06-01T01:31:59;11.43;;;5.60;;
7817;SDS011;3954;52.624;9.212;2023-06-01T01:34:26;9.77;;;5.80;;
7817;SDS011;3954;52.624;9.212;2023-06-01T01:36:53;9.27;;;6.00;;
7817;SDS011;3954;52.624;9.212;2023-06-01T01:39:19;10.33;;;5.47;;
7817;SDS011;3954;52.624;9.212;2023-06-01T01:41:45;7.40;;;4.90;;
7817;SDS011;3954;52.624;9.212;2023-06-01T01:44:11;10.20;;;5.73;;
7817;SDS011;3954;52.624;9.212;2023-06-01T01:46:41;11.47;;;6.17;;
7817;SDS011;3954;52.624;9.212;2023-06-01T01:49:12;9.43;;;6.00;;
7817;SDS011;3954;52.624;9.212;2023-06-01T01:51:40;11.33;;;5.97;;
7817;SDS011;3954;52.624;9.212;2023-06-01T01:54:09;8.17;;;5.43;;
7817;SDS011;3954;52.624;9.212;2023-06-01T01:56:36;8.70;;;5.90;;
7817;SDS011;3954;52.624;9.212;2023-06-01T01:59:02;9.87;;;6.07;;
7817;SDS011;3954;52.624;9.212;2023-06-01T02:01:29;11.57;;;6.17;;
7817;SDS011;3954;52.624;9.212;2023-06-01T02:04:00;10.60;;;6.03;;
7817;SDS011;3954;52.624;9.212;2023-06-01T02:06:26;9.50;;;6.33;;
7817;SDS011;3954;52.624;9.212;2023-06-01T02:08:52;11.83;;;6.00;;
7817;SDS011;3954;52.624;9.212;2023-06-01T02:11:18;11.53;;;6.27;;
7817;SDS011;3954;52.624;9.212;2023-06-01T02:13:44;15.33;;;6.80;;
7817;SDS011;3954;52.624;9.212;2023-06-01T02:16:10;8.47;;;6.67;;
7817;SDS011;3954;52.624;9.212;2023-06-01T02:18:36;9.47;;;6.27;;
7817;SDS011;3954;52.624;9.212;2023-06-01T02:21:05;13.43;;;7.30;;
7817;SDS011;3954;52.624;9.212;2023-06-01T02:23:32;11.90;;;6.60;;
7817;SDS011;3954;52.624;9.212;2023-06-01T02:25:58;10.97;;;6.40;;
7817;SDS011;3954;52.624;9.212;2023-06-01T02:28:24;10.47;;;7.13;;
7817;SDS011;3954;52.624;9.212;2023-06-01T02:30:50;10.03;;;6.47;;
7817;SDS011;3954;52.624;9.212;2023-06-01T02:33:16;11.13;;;6.70;;
7817;SDS011;3954;52.624;9.212;2023-06-01T02:35:42;8.03;;;6.07;;
7817;SDS011;3954;52.624;9.212;2023-06-01T02:38:09;14.03;;;7.17;;
7817;SDS011;3954;52.624;9.212;2023-06-01T02:40:35;10.70;;;6.87;;
7817;SDS011;3954;52.624;9.212;2023-06-01T02:43:01;10.67;;;6.43;;
7817;SDS011;3954;52.624;9.212;2023-06-01T02:45:27;13.33;;;6.50;;
7817;SDS011;3954;52.624;9.212;2023-06-01T02:47:53;7.87;;;6.20;;
7817;SDS011;3954;52.624;9.212;2023-06-01T02:50:19;10.57;;;6.83;;
7817;SDS011;3954;52.624;9.212;2023-06-01T02:52:45;12.43;;;7.27;;
7817;SDS011;3954;52.624;9.212;2023-06-01T02:55:13;8.67;;;5.87;;
7817;SDS011;3954;52.624;9.212;2023-06-01T02:57:39;10.47;;;6.60;;
7817;SDS011;3954;52.624;9.212;2023-06-01T03:00:05;10.23;;;6.73;;
7817;SDS011;3954;52.624;9.212;2023-06-01T03:02:40;11.13;;;6.90;;
7817;SDS011;3954;52.624;9.212;2023-06-01T03:05:06;11.40;;;7.13;;
7817;SDS011;3954;52.624;9.212;2023-06-01T03:07:32;10.77;;;7.13;;
7817;SDS011;3954;52.624;9.212;2023-06-01T03:09:58;8.97;;;6.70;;
7817;SDS011;3954;52.624;9.212;2023-06-01T03:12:26;8.80;;;6.40;;
7817;SDS011;3954;52.624;9.212;2023-06-01T03:14:52;10.50;;;6.07;;
7817;SDS011;3954;52.624;9.212;2023-06-01T03:17:18;7.87;;;5.73;;
7817;SDS011;3954;52.624;9.212;2023-06-01T03:19:44;7.57;;;5.73;;
7817;SDS011;3954;52.624;9.212;2023-06-01T03:22:10;8.13;;;5.90;;
7817;SDS011;3954;52.624;9.212;2023-06-01T03:24:36;9.40;;;5.67;;
7817;SDS011;3954;52.624;9.212;2023-06-01T03:27:06;9.47;;;5.87;;
7817;SDS011;3954;52.624;9.212;2023-06-01T03:29:33;9.73;;;6.30;;
7817;SDS011;3954;52.624;9.212;2023-06-01T03:31:59;9.53;;;6.93;;
7817;SDS011;3954;52.624;9.212;2023-06-01T03:34:25;9.40;;;7.13;;
7817;SDS011;3954;52.624;9.212;2023-06-01T03:36:52;10.18;;;6.50;;
7817;SDS011;3954;52.624;9.212;2023-06-01T03:39:18;8.13;;;5.68;;
7817;SDS011;3954;52.624;9.212;2023-06-01T03:41:44;9.17;;;6.37;;
7817;SDS011;3954;52.624;9.212;2023-06-01T03:44:10;8.90;;;6.25;;
7817;SDS011;3954;52.624;9.212;2023-06-01T03:46:38;8.15;;;6.43;;
7817;SDS011;3954;52.624;9.212;2023-06-01T03:49:04;9.05;;;6.25;;
7817;SDS011;3954;52.624;9.212;2023-06-01T03:51:30;10.00;;;6.93;;
7817;SDS011;3954;52.624;9.212;2023-06-01T03:53:56;10.55;;;7.10;;
7817;SDS011;3954;52.624;9.212;2023-06-01T03:56:22;7.30;;;6.53;;
7817;SDS011;3954;52.624;9.212;2023-06-01T03:58:48;11.05;;;8.52;;
7817;SDS011;3954;52.624;9.212;2023-06-01T04:01:14;11.63;;;8.30;;
7817;SDS011;3954;52.624;9.212;2023-06-01T04:03:43;10.82;;;9.63;;
7817;SDS011;3954;52.624;9.212;2023-06-01T04:06:09;12.77;;;10.68;;
7817;SDS011;3954;52.624;9.212;2023-06-01T04:08:38;12.38;;;11.00;;
7817;SDS011;3954;52.624;9.212;2023-06-01T04:11:13;12.50;;;10.80;;
7817;SDS011;3954;52.624;9.212;2023-06-01T04:13:39;11.98;;;10.68;;
7817;SDS011;3954;52.624;9.212;2023-06-01T04:16:05;13.38;;;9.05;;
7817;SDS011;3954;52.624;9.212;2023-06-01T04:18:31;10.07;;;7.85;;
7817;SDS011;3954;52.624;9.212;2023-06-01T04:20:59;10.52;;;8.05;;
7817;SDS011;3954;52.624;9.212;2023-06-01T04:23:25;12.98;;;10.02;;
7817;SDS011;3954;52.624;9.212;2023-06-01T04:25:51;12.30;;;9.93;;
7817;SDS011;3954;52.624;9.212;2023-06-01T04:28:18;11.35;;;9.68;;
7817;SDS011;3954;52.624;9.212;2023-06-01T04:30:45;12.68;;;10.65;;
7817;SDS011;3954;52.624;9.212;2023-06-01T04:33:16;13.35;;;11.95;;
7817;SDS011;3954;52.624;9.212;2023-06-01T04:35:42;14.82;;;12.52;;
7817;SDS011;3954;52.624;9.212;2023-06-01T04:38:09;13.50;;;11.95;;
7817;SDS011;3954;52.624;9.212;2023-06-01T04:40:35;17.33;;;13.38;;
7817;SDS011;3954;52.624;9.212;2023-06-01T04:43:01;16.25;;;13.40;;
7817;SDS011;3954;52.624;9.212;2023-06-01T04:45:28;18.95;;;16.90;;
7817;SDS011;3954;52.624;9.212;2023-06-01T04:47:58;21.40;;;16.40;;
7817;SDS011;3954;52.624;9.212;2023-06-01T04:50:24;19.37;;;16.00;;
7817;SDS011;3954;52.624;9.212;2023-06-01T04:52:54;20.27;;;15.93;;
7817;SDS011;3954;52.624;9.212;2023-06-01T04:55:21;18.47;;;15.23;;
7817;SDS011;3954;52.624;9.212;2023-06-01T04:57:48;16.37;;;14.47;;
7817;SDS011;3954;52.624;9.212;2023-06-01T05:00:14;15.90;;;13.23;;
7817;SDS011;3954;52.624;9.212;2023-06-01T05:02:43;14.83;;;13.17;;
7817;SDS011;3954;52.624;9.212;2023-06-01T05:05:10;13.53;;;12.13;;
7817;SDS011;3954;52.624;9.212;2023-06-01T05:07:36;18.13;;;12.80;;
7817;SDS011;3954;52.624;9.212;2023-06-01T05:10:04;18.97;;;14.10;;
7817;SDS011;3954;52.624;9.212;2023-06-01T05:12:32;16.17;;;13.47;;
7817;SDS011;3954;52.624;9.212;2023-06-01T05:14:58;15.93;;;13.57;;
7817;SDS011;3954;52.624;9.212;2023-06-01T05:17:24;16.50;;;14.23;;
7817;SDS011;3954;52.624;9.212;2023-06-01T05:19:50;18.63;;;15.07;;
7817;SDS011;3954;52.624;9.212;2023-06-01T05:22:16;20.60;;;15.20;;
7817;SDS011;3954;52.624;9.212;2023-06-01T05:24:42;20.63;;;14.63;;
7817;SDS011;3954;52.624;9.212;2023-06-01T05:27:08;18.30;;;14.73;;
7817;SDS011;3954;52.624;9.212;2023-06-01T05:29:36;20.40;;;13.47;;
7817;SDS011;3954;52.624;9.212;2023-06-01T05:32:02;14.00;;;10.27;;
7817;SDS011;3954;52.624;9.212;2023-06-01T05:34:28;12.27;;;8.47;;
7817;SDS011;3954;52.624;9.212;2023-06-01T05:36:54;9.00;;;8.10;;
7817;SDS011;3954;52.624;9.212;2023-06-01T05:39:20;12.10;;;7.40;;
7817;SDS011;3954;52.624;9.212;2023-06-01T05:41:52;11.10;;;7.13;;
7817;SDS011;3954;52.624;9.212;2023-06-01T05:44:18;13.90;;;7.47;;
7817;SDS011;3954;52.624;9.212;2023-06-01T05:46:46;13.03;;;6.57;;
7817;SDS011;3954;52.624;9.212;2023-06-01T05:49:12;12.73;;;6.27;;
7817;SDS011;3954;52.624;9.212;2023-06-01T05:51:39;11.43;;;6.47;;
7817;SDS011;3954;52.624;9.212;2023-06-01T05:54:05;9.93;;;5.40;;
7817;SDS011;3954;52.624;9.212;2023-06-01T05:56:32;9.03;;;5.27;;
7817;SDS011;3954;52.624;9.212;2023-06-01T05:58:58;7.30;;;4.63;;
7817;SDS011;3954;52.624;9.212;2023-06-01T06:01:24;11.37;;;5.07;;
7817;SDS011;3954;52.624;9.212;2023-06-01T06:03:53;7.80;;;4.40;;
7817;SDS011;3954;52.624;9.212;2023-06-01T06:06:20;7.87;;;4.90;;
7817;SDS011;3954;52.624;9.212;2023-06-01T06:08:47;6.30;;;4.30;;
7817;SDS011;3954;52.624;9.212;2023-06-01T06:11:13;7.57;;;4.30;;
7817;SDS011;3954;52.624;9.212;2023-06-01T06:13:39;10.03;;;4.63;;
7817;SDS011;3954;52.624;9.212;2023-06-01T06:16:05;9.07;;;4.77;;
7817;SDS011;3954;52.624;9.212;2023-06-01T06:18:31;7.30;;;5.00;;
7817;SDS011;3954;52.624;9.212;2023-06-01T06:20:58;7.13;;;4.70;;
7817;SDS011;3954;52.624;9.212;2023-06-01T06:23:25;10.07;;;5.10;;
7817;SDS011;3954;52.624;9.212;2023-06-01T06:25:52;7.37;;;4.87;;
7817;SDS011;3954;52.624;9.212;2023-06-01T06:28:18;7.67;;;4.63;;
7817;SDS011;3954;52.624;9.212;2023-06-01T06:30:44;6.17;;;3.87;;
7817;SDS011;3954;52.624;9.212;2023-06-01T06:33:10;7.87;;;4.50;;
7817;SDS011;3954;52.624;9.212;2023-06-01T06:35:36;6.53;;;4.07;;
7817;SDS011;3954;52.624;9.212;2023-06-01T06:38:05;8.07;;;4.27;;
7817;SDS011;3954;52.624;9.212;2023-06-01T06:40:31;7.73;;;4.57;;
7817;SDS011;3954;52.624;9.212;2023-06-01T06:42:57;7.43;;;4.40;;
7817;SDS011;3954;52.624;9.212;2023-06-01T06:45:23;7.27;;;4.17;;
7817;SDS011;3954;52.624;9.212;2023-06-01T06:47:49;9.43;;;4.50;;
7817;SDS011;3954;52.624;9.212;2023-06-01T06:50:15;5.77;;;3.83;;
7817;SDS011;3954;52.624;9.212;2023-06-01T06:52:42;9.20;;;4.43;;
7817;SDS011;3954;52.624;9.212;2023-06-01T06:55:09;6.17;;;3.60;;
7817;SDS011;3954;52.624;9.212;2023-06-01T06:57:35;8.87;;;4.37;;
7817;SDS011;3954;52.624;9.212;2023-06-01T07:00:04;5.47;;;3.53;;
7817;SDS011;3954;52.624;9.212;2023-06-01T07:02:30;6.03;;;3.93;;
7817;SDS011;3954;52.624;9.212;2023-06-01T07:04:56;5.63;;;3.47;;
7817;SDS011;3954;52.624;9.212;2023-06-01T07:07:22;5.13;;;3.33;;
7817;SDS011;3954;52.624;9.212;2023-06-01T07:09:48;4.10;;;2.93;;
7817;SDS011;3954;52.624;9.212;2023-06-01T07:12:16;6.90;;;3.53;;
7817;SDS011;3954;52.624;9.212;2023-06-01T07:14:42;6.53;;;3.60;;
7817;SDS011;3954;52.624;9.212;2023-06-01T07:17:08;5.27;;;3.10;;
7817;SDS011;3954;52.624;9.212;2023-06-01T07:19:34;5.03;;;3.07;;
7817;SDS011;3954;52.624;9.212;2023-06-01T07:22:00;4.63;;;3.00;;
7817;SDS011;3954;52.624;9.212;2023-06-01T07:24:26;4.20;;;2.70;;
7817;SDS011;3954;52.624;9.212;2023-06-01T07:26:52;4.82;;;2.80;;
7817;SDS011;3954;52.624;9.212;2023-06-01T07:29:20;3.55;;;2.60;;
7817;SDS011;3954;52.624;9.212;2023-06-01T07:31:46;4.93;;;2.60;;
7817;SDS011;3954;52.624;9.212;2023-06-01T07:34:12;3.97;;;2.92;;
7817;SDS011;3954;52.624;9.212;2023-06-01T07:36:38;5.35;;;3.05;;
7817;SDS011;3954;52.624;9.212;2023-06-01T07:39:05;3.72;;;2.70;;
7817;SDS011;3954;52.624;9.212;2023-06-01T07:41:32;4.78;;;2.70;;
7817;SDS011;3954;52.624;9.212;2023-06-01T07:43:58;3.92;;;2.45;;
7817;SDS011;3954;52.624;9.212;2023-06-01T07:46:25;3.63;;;2.30;;
7817;SDS011;3954;52.624;9.212;2023-06-01T07:48:51;2.60;;;1.90;;
7817;SDS011;3954;52.624;9.212;2023-06-01T07:51:17;2.53;;;1.90;;
7817;SDS011;3954;52.624;9.212;2023-06-01T07:53:43;2.57;;;1.83;;
7817;SDS011;3954;52.624;9.212;2023-06-01T07:56:09;3.17;;;2.00;;
7817;SDS011;3954;52.624;9.212;2023-06-01T07:58:36;3.37;;;2.00;;
7817;SDS011;3954;52.624;9.212;2023-06-01T08:01:02;4.80;;;2.20;;
7817;SDS011;3954;52.624;9.212;2023-06-01T08:03:30;2.97;;;2.10;;
7817;SDS011;3954;52.624;9.212;2023-06-01T08:05:58;3.10;;;2.10;;
7817;SDS011;3954;52.624;9.212;2023-06-01T08:08:27;2.20;;;2.00;;
7817;SDS011;3954;52.624;9.212;2023-06-01T08:10:53;2.97;;;2.00;;
7817;SDS011;3954;52.624;9.212;2023-06-01T08:13:19;2.90;;;1.90;;
7817;SDS011;3954;52.624;9.212;2023-06-01T08:15:46;1.87;;;1.60;;
7817;SDS011;3954;52.624;9.212;2023-06-01T08:18:12;1.73;;;1.63;;
7817;SDS011;3954;52.624;9.212;2023-06-01T08:20:40;2.37;;;1.90;;
7817;SDS011;3954;52.624;9.212;2023-06-01T08:23:07;3.17;;;2.10;;
7817;SDS011;3954;52.624;9.212;2023-06-01T08:25:33;3.13;;;2.00;;
7817;SDS011;3954;52.624;9.212;2023-06-01T08:27:59;2.10;;;1.90;;
7817;SDS011;3954;52.624;9.212;2023-06-01T08:30:25;2.85;;;2.05;;
7817;SDS011;3954;52.624;9.212;2023-06-01T08:32:51;2.25;;;1.70;;
7817;SDS011;3954;52.624;9.212;2023-06-01T08:35:17;2.13;;;1.90;;
7817;SDS011;3954;52.624;9.212;2023-06-01T08:37:45;2.13;;;1.80;;
7817;SDS011;3954;52.624;9.212;2023-06-01T08:40:12;2.38;;;1.75;;
7817;SDS011;3954;52.624;9.212;2023-06-01T08:42:41;2.10;;;1.60;;
7817;SDS011;3954;52.624;9.212;2023-06-01T08:45:10;1.90;;;1.70;;
7817;SDS011;3954;52.624;9.212;2023-06-01T08:47:36;1.85;;;1.67;;
7817;SDS011;3954;52.624;9.212;2023-06-01T08:50:04;2.22;;;1.80;;
7817;SDS011;3954;52.624;9.212;2023-06-01T08:52:31;2.28;;;1.70;;
7817;SDS011;3954;52.624;9.212;2023-06-01T08:54:59;1.60;;;1.50;;
7817;SDS011;3954;52.624;9.212;2023-06-01T08:57:25;2.33;;;1.60;;
7817;SDS011;3954;52.624;9.212;2023-06-01T08:59:52;2.17;;;1.70;;
7817;SDS011;3954;52.624;9.212;2023-06-01T09:02:18;1.77;;;1.55;;
7817;SDS011;3954;52.624;9.212;2023-06-01T09:04:44;1.80;;;1.50;;
7817;SDS011;3954;52.624;9.212;2023-06-01T09:07:10;1.77;;;1.33;;
7817;SDS011;3954;52.624;9.212;2023-06-01T09:09:36;2.47;;;1.70;;
7817;SDS011;3954;52.624;9.212;2023-06-01T09:12:17;2.28;;;1.65;;
7817;SDS011;3954;52.624;9.212;2023-06-01T09:14:43;2.50;;;1.40;;
7817;SDS011;3954;52.624;9.212;2023-06-01T09:17:11;1.45;;;1.35;;
7817;SDS011;3954;52.624;9.212;2023-06-01T09:19:41;1.53;;;1.40;;
7817;SDS011;3954;52.624;9.212;2023-06-01T09:22:08;1.83;;;1.52;;
7817;SDS011;3954;52.624;9.212;2023-06-01T09:24:34;2.20;;;1.80;;
7817;SDS011;3954;52.624;9.212;2023-06-01T09:27:00;1.80;;;1.70;;
7817;SDS011;3954;52.624;9.212;2023-06-01T09:29:28;1.92;;;1.70;;
7817;SDS011;3954;52.624;9.212;2023-06-01T09:31:54;2.45;;;1.67;;
7817;SDS011;3954;52.624;9.212;2023-06-01T09:34:20;2.10;;;1.90;;
7817;SDS011;3954;52.624;9.212;2023-06-01T09:36:47;1.70;;;1.60;;
7817;SDS011;3954;52.624;9.212;2023-06-01T09:39:14;1.88;;;1.77;;
7817;SDS011;3954;52.624;9.212;2023-06-01T09:41:43;2.60;;;1.70;;
7817;SDS011;3954;52.624;9.212;2023-06-01T09:44:10;2.40;;;2.00;;
7817;SDS011;3954;52.624;9.212;2023-06-01T09:46:46;1.88;;;1.73;;
7817;SDS011;3954;52.624;9.212;2023-06-01T09:49:17;1.92;;;1.77;;
7817;SDS011;3954;52.624;9.212;2023-06-01T09:51:44;3.28;;;2.00;;
7817;SDS011;3954;52.624;9.212;2023-06-01T09:54:12;1.80;;;1.70;;
7817;SDS011;3954;52.624;9.212;2023-06-01T09:56:46;1.77;;;1.65;;
7817;SDS011;3954;52.624;9.212;2023-06-01T09:59:12;2.10;;;1.88;;
7817;SDS011;3954;52.624;9.212;2023-06-01T10:01:39;3.13;;;2.30;;
7817;SDS011;3954;52.624;9.212;2023-06-01T10:04:07;1.90;;;1.70;;
7817;SDS011;3954;52.624;9.212;2023-06-01T10:06:35;1.90;;;1.63;;
7817;SDS011;3954;52.624;9.212;2023-06-01T10:09:03;3.20;;;2.00;;
7817;SDS011;3954;52.624;9.212;2023-06-01T10:11:31;3.45;;;2.10;;
7817;SDS011;3954;52.624;9.212;2023-06-01T10:13:58;2.50;;;2.10;;
7817;SDS011;3954;52.624;9.212;2023-06-01T10:16:24;2.57;;;2.13;;
7817;SDS011;3954;52.624;9.212;2023-06-01T10:18:51;3.72;;;2.40;;
7817;SDS011;3954;52.624;9.212;2023-06-01T10:21:18;2.83;;;2.10;;
7817;SDS011;3954;52.624;9.212;2023-06-01T10:23:44;2.40;;;2.20;;
7817;SDS011;3954;52.624;9.212;2023-06-01T10:26:11;3.03;;;2.10;;
7817;SDS011;3954;52.624;9.212;2023-06-01T10:28:39;4.22;;;2.60;;
7817;SDS011;3954;52.624;9.212;2023-06-01T10:33:53;3.17;;;2.50;;
7817;SDS011;3954;52.624;9.212;2023-06-01T10:36:20;2.20;;;1.98;;
7817;SDS011;3954;52.624;9.212;2023-06-01T10:38:47;2.60;;;2.40;;
7817;SDS011;3954;52.624;9.212;2023-06-01T10:41:26;2.83;;;2.23;;
7817;SDS011;3954;52.624;9.212;2023-06-01T10:43:52;2.75;;;2.40;;
7817;SDS011;3954;52.624;9.212;2023-06-01T10:46:35;2.75;;;2.45;;
7817;SDS011;3954;52.624;9.212;2023-06-01T10:49:01;2.80;;;2.40;;
7817;SDS011;3954;52.624;9.212;2023-06-01T10:51:29;3.55;;;2.85;;
7817;SDS011;3954;52.624;9.212;2023-06-01T10:53:56;4.07;;;3.13;;
7817;SDS011;3954;52.624;9.212;2023-06-01T10:56:42;3.95;;;3.00;;
7817;SDS011;3954;52.624;9.212;2023-06-01T10:59:11;3.65;;;2.70;;
7817;SDS011;3954;52.624;9.212;2023-06-01T11:01:37;3.58;;;2.80;;
7817;SDS011;3954;52.624;9.212;2023-06-01T11:04:04;4.65;;;2.90;;
7817;SDS011;3954;52.624;9.212;2023-06-01T11:06:35;4.28;;;2.60;;
7817;SDS011;3954;52.624;9.212;2023-06-01T11:09:03;3.88;;;2.88;;
7817;SDS011;3954;52.624;9.212;2023-06-01T11:14:22;3.17;;;2.67;;
7817;SDS011;3954;52.624;9.212;2023-06-01T11:16:50;2.78;;;2.45;;
7817;SDS011;3954;52.624;9.212;2023-06-01T11:19:17;4.88;;;2.92;;
7817;SDS011;3954;52.624;9.212;2023-06-01T11:21:47;4.87;;;2.90;;
7817;SDS011;3954;52.624;9.212;2023-06-01T11:24:14;3.58;;;2.70;;
7817;SDS011;3954;52.624;9.212;2023-06-01T11:26:41;3.55;;;2.75;;
7817;SDS011;3954;52.624;9.212;2023-06-01T11:29:08;4.35;;;3.05;;
7817;SDS011;3954;52.624;9.212;2023-06-01T11:31:36;4.75;;;2.90;;
7817;SDS011;3954;52.624;9.212;2023-06-01T11:34:03;2.95;;;2.53;;
7817;SDS011;3954;52.624;9.212;2023-06-01T11:36:29;4.03;;;2.95;;
7817;SDS011;3954;52.624;9.212;2023-06-01T11:38:57;3.42;;;2.38;;
7817;SDS011;3954;52.624;9.212;2023-06-01T11:41:23;4.10;;;2.70;;
7817;SDS011;3954;52.624;9.212;2023-06-01T11:43:53;5.63;;;2.97;;
7817;SDS011;3954;52.624;9.212;2023-06-01T11:46:20;3.88;;;2.60;;
7817;SDS011;3954;52.624;9.212;2023-06-01T11:48:57;3.50;;;2.50;;
7817;SDS011;3954;52.624;9.212;2023-06-01T11:51:26;4.85;;;3.17;;
7817;SDS011;3954;52.624;9.212;2023-06-01T11:53:52;5.33;;;3.17;;
7817;SDS011;3954;52.624;9.212;2023-06-01T11:56:21;6.20;;;3.30;;
7817;SDS011;3954;52.624;9.212;2023-06-01T11:58:56;6.53;;;3.45;;
7817;SDS011;3954;52.624;9.212;2023-06-01T12:01:22;5.50;;;3.25;;
7817;SDS011;3954;52.624;9.212;2023-06-01T12:03:48;4.70;;;3.00;;
7817;SDS011;3954;52.624;9.212;2023-06-01T12:06:18;4.00;;;2.72;;
7817;SDS011;3954;52.624;9.212;2023-06-01T12:08:44;5.43;;;3.17;;
7817;SDS011;3954;52.624;9.212;2023-06-01T12:11:10;3.47;;;2.63;;
7817;SDS011;3954;52.624;9.212;2023-06-01T12:13:38;4.20;;;2.65;;
7817;SDS011;3954;52.624;9.212;2023-06-01T12:16:04;4.80;;;2.90;;
7817;SDS011;3954;52.624;9.212;2023-06-01T12:18:31;5.57;;;3.05;;
7817;SDS011;3954;52.624;9.212;2023-06-01T12:20:57;4.60;;;3.10;;
7817;SDS011;3954;52.624;9.212;2023-06-01T12:23:23;5.82;;;2.97;;
7817;SDS011;3954;52.624;9.212;2023-06-01T12:25:49;4.63;;;3.10;;
7817;SDS011;3954;52.624;9.212;2023-06-01T12:28:15;5.15;;;3.00;;
7817;SDS011;3954;52.624;9.212;2023-06-01T12:30:46;4.18;;;3.17;;
7817;SDS011;3954;52.624;9.212;2023-06-01T12:33:31;4.47;;;3.08;;
7817;SDS011;3954;52.624;9.212;2023-06-01T12:35:58;4.78;;;3.03;;
7817;SDS011;3954;52.624;9.212;2023-06-01T12:38:24;4.33;;;2.83;;
7817;SDS011;3954;52.624;9.212;2023-06-01T12:41:05;5.37;;;3.40;;
7817;SDS011;3954;52.624;9.212;2023-06-01T12:43:32;4.47;;;3.00;;
7817;SDS011;3954;52.624;9.212;2023-06-01T12:46:01;3.37;;;2.70;;
7817;SDS011;3954;52.624;9.212;2023-06-01T12:48:30;6.67;;;3.03;;
7817;SDS011;3954;52.624;9.212;2023-06-01T12:51:00;4.60;;;3.13;;
7817;SDS011;3954;52.624;9.212;2023-06-01T12:53:26;3.70;;;2.80;;
7817;SDS011;3954;52.624;9.212;2023-06-01T12:55:52;5.60;;;2.90;;
7817;SDS011;3954;52.624;9.212;2023-06-01T12:58:18;3.90;;;2.83;;
7817;SDS011;3954;52.624;9.212;2023-06-01T13:00:44;6.28;;;3.20;;
7817;SDS011;3954;52.624;9.212;2023-06-01T13:03:11;4.70;;;2.80;;
7817;SDS011;3954;52.624;9.212;2023-06-01T13:05:40;4.72;;;2.88;;
7817;SDS011;3954;52.624;9.212;2023-06-01T13:08:10;5.67;;;2.90;;
7817;SDS011;3954;52.624;9.212;2023-06-01T13:10:36;5.65;;;2.80;;
7817;SDS011;3954;52.624;9.212;2023-06-01T13:13:02;5.20;;;2.90;;
7817;SDS011;3954;52.624;9.212;2023-06-01T13:15:28;4.20;;;2.90;;
7817;SDS011;3954;52.624;9.212;2023-06-01T13:17:54;4.95;;;2.80;;
7817;SDS011;3954;52.624;9.212;2023-06-01T13:20:22;5.72;;;3.03;;
7817;SDS011;3954;52.624;9.212;2023-06-01T13:22:48;4.03;;;2.70;;
7817;SDS011;3954;52.624;9.212;2023-06-01T13:25:14;4.20;;;2.80;;
7817;SDS011;3954;52.624;9.212;2023-06-01T13:27:40;5.25;;;2.63;;
7817;SDS011;3954;52.624;9.212;2023-06-01T13:30:07;4.55;;;2.83;;
7817;SDS011;3954;52.624;9.212;2023-06-01T13:32:33;4.85;;;2.85;;
7817;SDS011;3954;52.624;9.212;2023-06-01T13:35:00;5.65;;;2.70;;
7817;SDS011;3954;52.624;9.212;2023-06-01T13:37:27;5.47;;;2.88;;
7817;SDS011;3954;52.624;9.212;2023-06-01T13:39:53;6.85;;;2.83;;
7817;SDS011;3954;52.624;9.212;2023-06-01T13:42:19;4.95;;;2.50;;
7817;SDS011;3954;52.624;9.212;2023-06-01T13:44:45;5.70;;;2.80;;
7817;SDS011;3954;52.624;9.212;2023-06-01T13:47:12;6.10;;;2.80;;
7817;SDS011;3954;52.624;9.212;2023-06-01T13:49:40;6.45;;;2.85;;
7817;SDS011;3954;52.624;9.212;2023-06-01T13:52:06;5.43;;;2.65;;
7817;SDS011;3954;52.624;9.212;2023-06-01T13:54:34;5.60;;;2.38;;
7817;SDS011;3954;52.624;9.212;2023-06-01T13:57:01;5.32;;;3.00;;
7817;SDS011;3954;52.624;9.212;2023-06-01T13:59:33;6.05;;;2.95;;
7817;SDS011;3954;52.624;9.212;2023-06-01T14:02:00;5.68;;;2.83;;
7817;SDS011;3954;52.624;9.212;2023-06-01T14:04:26;8.93;;;3.40;;
7817;SDS011;3954;52.624;9.212;2023-06-01T14:06:52;5.18;;;2.97;;
7817;SDS011;3954;52.624;9.212;2023-06-01T14:09:20;8.55;;;3.47;;
7817;SDS011;3954;52.624;9.212;2023-06-01T14:11:48;7.28;;;3.30;;
7817;SDS011;3954;52.624;9.212;2023-06-01T14:14:14;5.40;;;2.90;;
7817;SDS011;3954;52.624;9.212;2023-06-01T14:16:40;7.90;;;3.05;;
7817;SDS011;3954;52.624;9.212;2023-06-01T14:19:06;7.45;;;3.20;;
7817;SDS011;3954;52.624;9.212;2023-06-01T14:21:32;7.20;;;3.28;;
7817;SDS011;3954;52.624;9.212;2023-06-01T14:24:00;6.57;;;3.30;;
7817;SDS011;3954;52.624;9.212;2023-06-01T14:26:27;6.10;;;3.00;;
7817;SDS011;3954;52.624;9.212;2023-06-01T14:28:55;8.13;;;3.10;;
7817;SDS011;3954;52.624;9.212;2023-06-01T14:31:21;9.20;;;3.10;;
7817;SDS011;3954;52.624;9.212;2023-06-01T14:33:47;7.38;;;3.20;;
7817;SDS011;3954;52.624;9.212;2023-06-01T14:36:13;7.67;;;3.60;;
7817;SDS011;3954;52.624;9.212;2023-06-01T14:38:39;6.28;;;3.20;;
7817;SDS011;3954;52.624;9.212;2023-06-01T14:41:05;5.10;;;2.90;;
7817;SDS011;3954;52.624;9.212;2023-06-01T14:43:31;6.93;;;3.63;;
7817;SDS011;3954;52.624;9.212;2023-06-01T14:45:59;7.03;;;3.13;;
7817;SDS011;3954;52.624;9.212;2023-06-01T14:48:25;5.50;;;3.00;;
7817;SDS011;3954;52.624;9.212;2023-06-01T14:50:51;6.78;;;3.70;;
7817;SDS011;3954;52.624;9.212;2023-06-01T14:53:17;6.73;;;3.30;;
7817;SDS011;3954;52.624;9.212;2023-06-01T14:55:44;7.60;;;3.55;;
7817;SDS011;3954;52.624;9.212;2023-06-01T14:58:10;7.90;;;3.80;;
7817;SDS011;3954;52.624;9.212;2023-06-01T15:00:36;7.63;;;3.47;;
7817;SDS011;3954;52.624;9.212;2023-06-01T15:03:04;7.72;;;3.67;;
7817;SDS011;3954;52.624;9.212;2023-06-01T15:05:30;8.70;;;3.65;;
7817;SDS011;3954;52.624;9.212;2023-06-01T15:07:56;7.90;;;3.60;;
7817;SDS011;3954;52.624;9.212;2023-06-01T15:10:22;6.40;;;3.55;;
7817;SDS011;3954;52.624;9.212;2023-06-01T15:12:48;8.07;;;3.60;;
7817;SDS011;3954;52.624;9.212;2023-06-01T15:15:14;5.82;;;3.33;;